sensor_id;sensor_type;location;lat;lon;timestamp;P1;durP1;ratioP1;P2;durP2;ratioP2
15307;SDS011;7755;52.208;6.964;2023-05-02T00:03:34;41.77;;;31.20;;
15307;SDS011;7755;52.208;6.964;2023-05-02T00:07:37;43.97;;;31.13;;
15307;SDS011;7755;52.208;6.964;2023-05-02T00:11:40;48.60;;;34.53;;
15307;SDS011;7755;52.208;6.964;2023-05-02T00:15:43;52.37;;;36.87;;
15307;SDS011;7755;52.208;6.964;2023-05-02T00:19:47;47.83;;;35.37;;
15307;SDS011;7755;52.208;6.964;2023-05-02T00:23:50;43.57;;;32.43;;
15307;SDS011;7755;52.208;6.964;2023-05-02T00:27:53;45.43;;;33.17;;
15307;SDS011;7755;52.208;6.964;2023-05-02T00:31:56;42.80;;;30.23;;
15307;SDS011;7755;52.208;6.964;2023-05-02T00:36:00;39.60;;;29.23;;
15307;SDS011;7755;52.208;6.964;2023-05-02T00:40:03;41.43;;;27.40;;
15307;SDS011;7755;52.208;6.964;2023-05-02T00:44:06;40.97;;;27.77;;
15307;SDS011;7755;52.208;6.964;2023-05-02T00:48:09;36.93;;;26.17;;
15307;SDS011;7755;52.208;6.964;2023-05-02T00:52:14;38.47;;;27.20;;
15307;SDS011;7755;52.208;6.964;2023-05-02T00:56:17;35.77;;;25.70;;
15307;SDS011;7755;52.208;6.964;2023-05-02T01:00:20;35.40;;;24.93;;
15307;SDS011;7755;52.208;6.964;2023-05-02T01:04:30;38.07;;;24.60;;
15307;SDS011;7755;52.208;6.964;2023-05-02T01:08:44;32.60;;;23.60;;
15307;SDS011;7755;52.208;6.964;2023-05-02T01:12:53;30.40;;;21.00;;
15307;SDS011;7755;52.208;6.964;2023-05-02T01:17:01;26.90;;;20.77;;
15307;SDS011;7755;52.208;6.964;2023-05-02T01:21:06;31.23;;;22.20;;
15307;SDS011;7755;52.208;6.964;2023-05-02T01:25:17;29.13;;;21.40;;
15307;SDS011;7755;52.208;6.964;2023-05-02T01:29:32;30.23;;;20.30;;
15307;SDS011;7755;52.208;6.964;2023-05-02T01:33:38;27.50;;;20.73;;
15307;SDS011;7755;52.208;6.964;2023-05-02T01:37:42;24.87;;;18.03;;
15307;SDS011;7755;52.208;6.964;2023-05-02T01:41:47;29.00;;;20.53;;
15307;SDS011;7755;52.208;6.964;2023-05-02T01:45:55;29.17;;;19.73;;
15307;SDS011;7755;52.208;6.964;2023-05-02T01:49:59;24.50;;;17.30;;
15307;SDS011;7755;52.208;6.964;2023-05-02T01:54:04;26.60;;;19.77;;
15307;SDS011;7755;52.208;6.964;2023-05-02T01:58:09;27.33;;;19.47;;
15307;SDS011;7755;52.208;6.964;2023-05-02T02:02:14;26.63;;;18.73;;
15307;SDS011;7755;52.208;6.964;2023-05-02T02:06:18;24.17;;;17.87;;
15307;SDS011;7755;52.208;6.964;2023-05-02T02:10:22;24.00;;;16.83;;
15307;SDS011;7755;52.208;6.964;2023-05-02T02:14:32;24.87;;;17.53;;
15307;SDS011;7755;52.208;6.964;2023-05-02T02:18:37;23.77;;;17.43;;
15307;SDS011;7755;52.208;6.964;2023-05-02T02:22:41;24.63;;;17.83;;
15307;SDS011;7755;52.208;6.964;2023-05-02T02:26:45;21.07;;;16.23;;
15307;SDS011;7755;52.208;6.964;2023-05-02T02:30:48;26.37;;;17.27;;
15307;SDS011;7755;52.208;6.964;2023-05-02T02:34:52;19.63;;;14.07;;
15307;SDS011;7755;52.208;6.964;2023-05-02T02:38:58;20.57;;;15.07;;
15307;SDS011;7755;52.208;6.964;2023-05-02T02:43:14;16.97;;;13.33;;
15307;SDS011;7755;52.208;6.964;2023-05-02T02:47:22;13.37;;;10.17;;
15307;SDS011;7755;52.208;6.964;2023-05-02T02:51:30;7.70;;;6.87;;
15307;SDS011;7755;52.208;6.964;2023-05-02T02:55:42;7.93;;;7.13;;
15307;SDS011;7755;52.208;6.964;2023-05-02T02:59:50;7.37;;;6.03;;
15307;SDS011;7755;52.208;6.964;2023-05-02T03:04:03;7.57;;;6.50;;
15307;SDS011;7755;52.208;6.964;2023-05-02T03:08:08;9.23;;;6.23;;
15307;SDS011;7755;52.208;6.964;2023-05-02T03:12:11;8.90;;;6.23;;
15307;SDS011;7755;52.208;6.964;2023-05-02T03:16:23;8.27;;;6.00;;
15307;SDS011;7755;52.208;6.964;2023-05-02T03:20:40;8.47;;;5.77;;
15307;SDS011;7755;52.208;6.964;2023-05-02T03:24:45;8.07;;;5.63;;
15307;SDS011;7755;52.208;6.964;2023-05-02T03:28:48;5.80;;;5.30;;
15307;SDS011;7755;52.208;6.964;2023-05-02T03:32:57;6.80;;;4.87;;
15307;SDS011;7755;52.208;6.964;2023-05-02T03:37:00;6.10;;;4.43;;
15307;SDS011;7755;52.208;6.964;2023-05-02T03:41:06;5.90;;;4.93;;
15307;SDS011;7755;52.208;6.964;2023-05-02T03:45:09;4.70;;;4.20;;
15307;SDS011;7755;52.208;6.964;2023-05-02T03:49:12;5.27;;;4.77;;
15307;SDS011;7755;52.208;6.964;2023-05-02T03:53:18;6.53;;;4.50;;
15307;SDS011;7755;52.208;6.964;2023-05-02T03:57:29;7.13;;;5.03;;
15307;SDS011;7755;52.208;6.964;2023-05-02T04:01:33;5.47;;;4.63;;
15307;SDS011;7755;52.208;6.964;2023-05-02T04:05:36;7.03;;;4.13;;
15307;SDS011;7755;52.208;6.964;2023-05-02T04:09:39;5.83;;;4.73;;
15307;SDS011;7755;52.208;6.964;2023-05-02T04:13:46;6.87;;;4.67;;
15307;SDS011;7755;52.208;6.964;2023-05-02T04:17:48;9.17;;;5.13;;
15307;SDS011;7755;52.208;6.964;2023-05-02T04:21:52;5.43;;;4.57;;
15307;SDS011;7755;52.208;6.964;2023-05-02T04:25:55;7.07;;;4.93;;
15307;SDS011;7755;52.208;6.964;2023-05-02T04:30:12;5.77;;;4.80;;
15307;SDS011;7755;52.208;6.964;2023-05-02T04:34:19;10.77;;;5.10;;
15307;SDS011;7755;52.208;6.964;2023-05-02T04:38:22;5.67;;;4.60;;
15307;SDS011;7755;52.208;6.964;2023-05-02T04:42:25;6.60;;;4.70;;
15307;SDS011;7755;52.208;6.964;2023-05-02T04:46:46;6.37;;;5.23;;
15307;SDS011;7755;52.208;6.964;2023-05-02T04:50:49;5.80;;;5.20;;
15307;SDS011;7755;52.208;6.964;2023-05-02T04:54:54;10.90;;;4.70;;
15307;SDS011;7755;52.208;6.964;2023-05-02T04:58:58;5.53;;;4.30;;
15307;SDS011;7755;52.208;6.964;2023-05-02T05:03:03;6.40;;;4.40;;
15307;SDS011;7755;52.208;6.964;2023-05-02T05:07:06;7.47;;;4.63;;
15307;SDS011;7755;52.208;6.964;2023-05-02T05:11:10;9.00;;;5.10;;
15307;SDS011;7755;52.208;6.964;2023-05-02T05:15:13;9.30;;;6.60;;
15307;SDS011;7755;52.208;6.964;2023-05-02T05:19:21;10.63;;;7.07;;
15307;SDS011;7755;52.208;6.964;2023-05-02T05:23:24;11.63;;;6.47;;
15307;SDS011;7755;52.208;6.964;2023-05-02T05:27:28;8.20;;;6.67;;
15307;SDS011;7755;52.208;6.964;2023-05-02T05:31:31;8.30;;;6.23;;
15307;SDS011;7755;52.208;6.964;2023-05-02T05:35:36;11.57;;;6.87;;
15307;SDS011;7755;52.208;6.964;2023-05-02T05:39:39;10.90;;;7.47;;
15307;SDS011;7755;52.208;6.964;2023-05-02T05:43:42;12.37;;;8.07;;
15307;SDS011;7755;52.208;6.964;2023-05-02T05:47:46;12.63;;;7.33;;
15307;SDS011;7755;52.208;6.964;2023-05-02T05:51:50;12.80;;;7.50;;
15307;SDS011;7755;52.208;6.964;2023-05-02T05:55:53;10.60;;;7.27;;
15307;SDS011;7755;52.208;6.964;2023-05-02T05:59:56;13.70;;;7.70;;
15307;SDS011;7755;52.208;6.964;2023-05-02T06:03:59;17.77;;;8.63;;
15307;SDS011;7755;52.208;6.964;2023-05-02T06:08:04;15.07;;;8.20;;
15307;SDS011;7755;52.208;6.964;2023-05-02T06:12:07;14.30;;;8.70;;
15307;SDS011;7755;52.208;6.964;2023-05-02T06:16:11;16.43;;;8.07;;
15307;SDS011;7755;52.208;6.964;2023-05-02T06:20:14;18.37;;;7.27;;
15307;SDS011;7755;52.208;6.964;2023-05-02T06:24:20;11.57;;;6.03;;
15307;SDS011;7755;52.208;6.964;2023-05-02T06:28:23;10.17;;;5.20;;
15307;SDS011;7755;52.208;6.964;2023-05-02T06:32:28;17.23;;;6.20;;
15307;SDS011;7755;52.208;6.964;2023-05-02T06:36:31;10.33;;;5.53;;
15307;SDS011;7755;52.208;6.964;2023-05-02T06:40:35;13.33;;;5.93;;
15307;SDS011;7755;52.208;6.964;2023-05-02T06:44:45;10.07;;;5.07;;
15307;SDS011;7755;52.208;6.964;2023-05-02T06:48:48;9.97;;;5.30;;
15307;SDS011;7755;52.208;6.964;2023-05-02T06:52:51;11.30;;;6.00;;
15307;SDS011;7755;52.208;6.964;2023-05-02T06:56:55;10.50;;;5.00;;
15307;SDS011;7755;52.208;6.964;2023-05-02T07:00:57;8.43;;;5.37;;
15307;SDS011;7755;52.208;6.964;2023-05-02T07:05:00;11.63;;;5.20;;
15307;SDS011;7755;52.208;6.964;2023-05-02T07:09:08;8.10;;;4.63;;
15307;SDS011;7755;52.208;6.964;2023-05-02T07:13:12;13.37;;;4.70;;
15307;SDS011;7755;52.208;6.964;2023-05-02T07:17:15;10.97;;;5.43;;
15307;SDS011;7755;52.208;6.964;2023-05-02T07:21:18;7.90;;;4.10;;
15307;SDS011;7755;52.208;6.964;2023-05-02T07:25:20;8.90;;;4.53;;
15307;SDS011;7755;52.208;6.964;2023-05-02T07:29:24;6.13;;;3.20;;
15307;SDS011;7755;52.208;6.964;2023-05-02T07:33:27;4.83;;;3.27;;
15307;SDS011;7755;52.208;6.964;2023-05-02T07:37:31;5.07;;;3.30;;
15307;SDS011;7755;52.208;6.964;2023-05-02T07:41:35;9.17;;;3.50;;
15307;SDS011;7755;52.208;6.964;2023-05-02T07:45:39;6.00;;;3.50;;
15307;SDS011;7755;52.208;6.964;2023-05-02T07:49:42;4.77;;;3.40;;
15307;SDS011;7755;52.208;6.964;2023-05-02T07:53:45;3.70;;;3.10;;
15307;SDS011;7755;52.208;6.964;2023-05-02T07:57:47;4.17;;;2.80;;
15307;SDS011;7755;52.208;6.964;2023-05-02T08:01:52;5.87;;;3.20;;
15307;SDS011;7755;52.208;6.964;2023-05-02T08:05:54;5.63;;;2.60;;
15307;SDS011;7755;52.208;6.964;2023-05-02T08:09:57;4.87;;;3.07;;
15307;SDS011;7755;52.208;6.964;2023-05-02T08:14:00;4.53;;;3.03;;
15307;SDS011;7755;52.208;6.964;2023-05-02T08:18:04;7.30;;;3.67;;
15307;SDS011;7755;52.208;6.964;2023-05-02T08:22:07;8.33;;;3.23;;
15307;SDS011;7755;52.208;6.964;2023-05-02T08:26:10;4.33;;;2.93;;
15307;SDS011;7755;52.208;6.964;2023-05-02T08:30:13;5.50;;;3.03;;
15307;SDS011;7755;52.208;6.964;2023-05-02T08:34:17;5.20;;;3.30;;
15307;SDS011;7755;52.208;6.964;2023-05-02T08:38:20;4.03;;;3.10;;
15307;SDS011;7755;52.208;6.964;2023-05-02T08:42:22;6.07;;;3.30;;
15307;SDS011;7755;52.208;6.964;2023-05-02T08:46:26;3.93;;;2.80;;
15307;SDS011;7755;52.208;6.964;2023-05-02T08:50:31;5.80;;;2.80;;
15307;SDS011;7755;52.208;6.964;2023-05-02T08:54:37;5.30;;;2.87;;
15307;SDS011;7755;52.208;6.964;2023-05-02T08:58:40;3.97;;;3.63;;
15307;SDS011;7755;52.208;6.964;2023-05-02T09:02:48;7.03;;;3.93;;
15307;SDS011;7755;52.208;6.964;2023-05-02T09:07:01;5.80;;;3.40;;
15307;SDS011;7755;52.208;6.964;2023-05-02T09:11:04;6.30;;;3.50;;
15307;SDS011;7755;52.208;6.964;2023-05-02T09:15:08;5.10;;;3.10;;
15307;SDS011;7755;52.208;6.964;2023-05-02T09:19:15;9.90;;;3.60;;
15307;SDS011;7755;52.208;6.964;2023-05-02T09:23:34;3.70;;;3.10;;
15307;SDS011;7755;52.208;6.964;2023-05-02T09:27:48;4.00;;;3.20;;
15307;SDS011;7755;52.208;6.964;2023-05-02T09:31:52;4.23;;;3.63;;
15307;SDS011;7755;52.208;6.964;2023-05-02T09:35:57;6.37;;;3.60;;
15307;SDS011;7755;52.208;6.964;2023-05-02T09:40:07;5.67;;;3.63;;
15307;SDS011;7755;52.208;6.964;2023-05-02T09:44:11;4.77;;;3.57;;
15307;SDS011;7755;52.208;6.964;2023-05-02T09:48:15;6.37;;;3.87;;
15307;SDS011;7755;52.208;6.964;2023-05-02T09:52:18;5.00;;;3.47;;
15307;SDS011;7755;52.208;6.964;2023-05-02T09:56:24;7.77;;;4.10;;
15307;SDS011;7755;52.208;6.964;2023-05-02T10:00:40;7.13;;;4.30;;
15307;SDS011;7755;52.208;6.964;2023-05-02T10:04:43;3.67;;;3.37;;
15307;SDS011;7755;52.208;6.964;2023-05-02T10:08:48;10.83;;;4.03;;
15307;SDS011;7755;52.208;6.964;2023-05-02T10:12:52;6.73;;;4.07;;
15307;SDS011;7755;52.208;6.964;2023-05-02T10:16:58;12.20;;;4.30;;
15307;SDS011;7755;52.208;6.964;2023-05-02T10:21:04;7.43;;;4.20;;
15307;SDS011;7755;52.208;6.964;2023-05-02T10:25:10;6.57;;;4.00;;
15307;SDS011;7755;52.208;6.964;2023-05-02T10:29:15;5.27;;;3.70;;
15307;SDS011;7755;52.208;6.964;2023-05-02T10:33:18;7.27;;;4.30;;
15307;SDS011;7755;52.208;6.964;2023-05-02T10:37:22;8.73;;;4.27;;
15307;SDS011;7755;52.208;6.964;2023-05-02T10:41:28;8.13;;;4.67;;
15307;SDS011;7755;52.208;6.964;2023-05-02T10:45:34;5.80;;;4.07;;
15307;SDS011;7755;52.208;6.964;2023-05-02T10:49:47;8.20;;;4.47;;
15307;SDS011;7755;52.208;6.964;2023-05-02T10:53:51;7.97;;;4.27;;
15307;SDS011;7755;52.208;6.964;2023-05-02T11:11:37;5.97;;;3.97;;
15307;SDS011;7755;52.208;6.964;2023-05-02T11:15:54;5.77;;;4.27;;
15307;SDS011;7755;52.208;6.964;2023-05-02T11:24:36;6.00;;;4.50;;
15307;SDS011;7755;52.208;6.964;2023-05-02T11:28:41;6.00;;;4.20;;
15307;SDS011;7755;52.208;6.964;2023-05-02T12:38:06;5.37;;;3.97;;
15307;SDS011;7755;52.208;6.964;2023-05-02T12:42:10;6.83;;;4.87;;
15307;SDS011;7755;52.208;6.964;2023-05-02T12:46:14;5.27;;;4.40;;
15307;SDS011;7755;52.208;6.964;2023-05-02T12:50:17;5.67;;;4.37;;
15307;SDS011;7755;52.208;6.964;2023-05-02T12:54:21;6.23;;;4.83;;
15307;SDS011;7755;52.208;6.964;2023-05-02T12:58:24;5.57;;;4.57;;
15307;SDS011;7755;52.208;6.964;2023-05-02T13:02:28;10.30;;;4.30;;
15307;SDS011;7755;52.208;6.964;2023-05-02T13:06:32;6.17;;;4.37;;
15307;SDS011;7755;52.208;6.964;2023-05-02T13:10:39;5.30;;;4.47;;
15307;SDS011;7755;52.208;6.964;2023-05-02T13:14:42;5.53;;;3.83;;
15307;SDS011;7755;52.208;6.964;2023-05-02T13:18:45;8.10;;;3.80;;
15307;SDS011;7755;52.208;6.964;2023-05-02T13:22:48;6.37;;;4.20;;
15307;SDS011;7755;52.208;6.964;2023-05-02T13:26:52;4.27;;;3.70;;
15307;SDS011;7755;52.208;6.964;2023-05-02T13:30:55;7.40;;;4.33;;
15307;SDS011;7755;52.208;6.964;2023-05-02T13:34:58;4.27;;;3.93;;
15307;SDS011;7755;52.208;6.964;2023-05-02T13:39:01;5.90;;;4.07;;
15307;SDS011;7755;52.208;6.964;2023-05-02T13:43:06;5.83;;;3.83;;
15307;SDS011;7755;52.208;6.964;2023-05-02T13:47:08;4.57;;;3.80;;
15307;SDS011;7755;52.208;6.964;2023-05-02T13:51:11;6.00;;;3.93;;
15307;SDS011;7755;52.208;6.964;2023-05-02T13:55:14;4.97;;;3.97;;
15307;SDS011;7755;52.208;6.964;2023-05-02T13:59:18;4.30;;;3.90;;
15307;SDS011;7755;52.208;6.964;2023-05-02T14:03:21;7.50;;;4.23;;
15307;SDS011;7755;52.208;6.964;2023-05-02T14:07:24;4.10;;;3.70;;
15307;SDS011;7755;52.208;6.964;2023-05-02T14:11:26;4.57;;;3.30;;
15307;SDS011;7755;52.208;6.964;2023-05-02T14:15:30;7.90;;;4.57;;
15307;SDS011;7755;52.208;6.964;2023-05-02T14:19:33;4.50;;;3.00;;
15307;SDS011;7755;52.208;6.964;2023-05-02T14:23:36;4.43;;;3.30;;
15307;SDS011;7755;52.208;6.964;2023-05-02T14:27:38;5.03;;;2.93;;
15307;SDS011;7755;52.208;6.964;2023-05-02T14:31:43;4.27;;;3.60;;
15307;SDS011;7755;52.208;6.964;2023-05-02T14:35:47;4.57;;;3.33;;
15307;SDS011;7755;52.208;6.964;2023-05-02T14:39:50;3.40;;;3.03;;
15307;SDS011;7755;52.208;6.964;2023-05-02T14:43:56;4.87;;;3.00;;
15307;SDS011;7755;52.208;6.964;2023-05-02T14:48:00;4.37;;;3.13;;
15307;SDS011;7755;52.208;6.964;2023-05-02T14:52:03;4.40;;;3.03;;
15307;SDS011;7755;52.208;6.964;2023-05-02T14:56:10;2.87;;;2.67;;
15307;SDS011;7755;52.208;6.964;2023-05-02T15:00:14;5.20;;;2.80;;
15307;SDS011;7755;52.208;6.964;2023-05-02T15:04:18;3.83;;;2.73;;
15307;SDS011;7755;52.208;6.964;2023-05-02T15:08:21;5.67;;;2.80;;
15307;SDS011;7755;52.208;6.964;2023-05-02T15:12:25;2.93;;;2.50;;
15307;SDS011;7755;52.208;6.964;2023-05-02T15:16:28;5.00;;;3.37;;
15307;SDS011;7755;52.208;6.964;2023-05-02T15:20:32;3.57;;;2.73;;
15307;SDS011;7755;52.208;6.964;2023-05-02T15:24:35;3.70;;;2.60;;
15307;SDS011;7755;52.208;6.964;2023-05-02T15:28:37;2.63;;;2.43;;
15307;SDS011;7755;52.208;6.964;2023-05-02T15:32:40;3.57;;;3.00;;
15307;SDS011;7755;52.208;6.964;2023-05-02T15:36:44;6.87;;;3.03;;
15307;SDS011;7755;52.208;6.964;2023-05-02T15:40:54;3.00;;;2.67;;
15307;SDS011;7755;52.208;6.964;2023-05-02T15:44:57;4.03;;;2.77;;
15307;SDS011;7755;52.208;6.964;2023-05-02T15:49:00;4.13;;;2.80;;
15307;SDS011;7755;52.208;6.964;2023-05-02T15:53:04;2.83;;;2.57;;
15307;SDS011;7755;52.208;6.964;2023-05-02T15:57:07;3.90;;;2.70;;
15307;SDS011;7755;52.208;6.964;2023-05-02T16:01:10;4.00;;;2.67;;
15307;SDS011;7755;52.208;6.964;2023-05-02T16:05:13;4.53;;;2.43;;
15307;SDS011;7755;52.208;6.964;2023-05-02T16:09:17;4.20;;;2.50;;
15307;SDS011;7755;52.208;6.964;2023-05-02T16:13:21;3.90;;;2.57;;
15307;SDS011;7755;52.208;6.964;2023-05-02T16:17:23;2.80;;;2.50;;
15307;SDS011;7755;52.208;6.964;2023-05-02T16:21:26;3.27;;;2.50;;
15307;SDS011;7755;52.208;6.964;2023-05-02T16:25:30;4.17;;;2.67;;
15307;SDS011;7755;52.208;6.964;2023-05-02T16:29:33;2.97;;;2.63;;
15307;SDS011;7755;52.208;6.964;2023-05-02T16:33:36;3.97;;;2.53;;
15307;SDS011;7755;52.208;6.964;2023-05-02T16:37:40;4.13;;;2.63;;
15307;SDS011;7755;52.208;6.964;2023-05-02T16:41:44;4.77;;;2.80;;
15307;SDS011;7755;52.208;6.964;2023-05-02T16:45:47;3.53;;;2.67;;
15307;SDS011;7755;52.208;6.964;2023-05-02T16:49:53;2.83;;;2.63;;
15307;SDS011;7755;52.208;6.964;2023-05-02T16:53:55;3.90;;;2.80;;
15307;SDS011;7755;52.208;6.964;2023-05-02T16:57:59;3.67;;;2.70;;
15307;SDS011;7755;52.208;6.964;2023-05-02T17:02:02;3.10;;;2.73;;
15307;SDS011;7755;52.208;6.964;2023-05-02T17:06:05;3.03;;;2.83;;
15307;SDS011;7755;52.208;6.964;2023-05-02T17:10:08;3.50;;;2.87;;
15307;SDS011;7755;52.208;6.964;2023-05-02T17:14:13;3.07;;;2.40;;
15307;SDS011;7755;52.208;6.964;2023-05-02T17:18:16;2.50;;;2.30;;
15307;SDS011;7755;52.208;6.964;2023-05-02T17:22:19;3.10;;;2.60;;
15307;SDS011;7755;52.208;6.964;2023-05-02T17:26:22;4.83;;;2.53;;
15307;SDS011;7755;52.208;6.964;2023-05-02T17:30:26;3.20;;;2.90;;
15307;SDS011;7755;52.208;6.964;2023-05-02T17:34:29;3.70;;;2.97;;
15307;SDS011;7755;52.208;6.964;2023-05-02T17:38:33;3.97;;;2.53;;
15307;SDS011;7755;52.208;6.964;2023-05-02T17:42:42;6.00;;;2.93;;
15307;SDS011;7755;52.208;6.964;2023-05-02T17:46:47;4.00;;;2.80;;
15307;SDS011;7755;52.208;6.964;2023-05-02T17:50:50;3.00;;;2.50;;
15307;SDS011;7755;52.208;6.964;2023-05-02T17:54:53;4.17;;;2.70;;
15307;SDS011;7755;52.208;6.964;2023-05-02T17:58:56;2.87;;;2.40;;
15307;SDS011;7755;52.208;6.964;2023-05-02T18:03:01;2.80;;;2.37;;
15307;SDS011;7755;52.208;6.964;2023-05-02T18:07:04;3.03;;;2.60;;
15307;SDS011;7755;52.208;6.964;2023-05-02T18:11:12;3.70;;;3.10;;
15307;SDS011;7755;52.208;6.964;2023-05-02T18:15:15;3.67;;;2.30;;
15307;SDS011;7755;52.208;6.964;2023-05-02T18:19:19;6.57;;;2.87;;
15307;SDS011;7755;52.208;6.964;2023-05-02T18:23:23;6.30;;;3.00;;
15307;SDS011;7755;52.208;6.964;2023-05-02T18:27:25;2.70;;;2.50;;
15307;SDS011;7755;52.208;6.964;2023-05-02T18:31:28;2.63;;;2.43;;
15307;SDS011;7755;52.208;6.964;2023-05-02T18:35:33;2.40;;;2.17;;
15307;SDS011;7755;52.208;6.964;2023-05-02T18:39:36;4.63;;;2.43;;
15307;SDS011;7755;52.208;6.964;2023-05-02T18:43:39;4.37;;;2.80;;
15307;SDS011;7755;52.208;6.964;2023-05-02T18:47:42;2.77;;;2.17;;
15307;SDS011;7755;52.208;6.964;2023-05-02T18:51:46;2.23;;;2.03;;
15307;SDS011;7755;52.208;6.964;2023-05-02T18:55:48;2.87;;;2.13;;
15307;SDS011;7755;52.208;6.964;2023-05-02T18:59:51;2.60;;;2.07;;
15307;SDS011;7755;52.208;6.964;2023-05-02T19:03:54;2.13;;;1.87;;
15307;SDS011;7755;52.208;6.964;2023-05-02T19:07:59;3.33;;;2.13;;
15307;SDS011;7755;52.208;6.964;2023-05-02T19:12:01;4.23;;;2.47;;
15307;SDS011;7755;52.208;6.964;2023-05-02T19:16:04;2.40;;;2.20;;
15307;SDS011;7755;52.208;6.964;2023-05-02T19:20:11;2.30;;;2.10;;
15307;SDS011;7755;52.208;6.964;2023-05-02T19:24:15;2.70;;;2.23;;
15307;SDS011;7755;52.208;6.964;2023-05-02T19:28:18;3.30;;;2.47;;
15307;SDS011;7755;52.208;6.964;2023-05-02T19:32:21;2.97;;;2.30;;
15307;SDS011;7755;52.208;6.964;2023-05-02T19:36:25;2.77;;;2.10;;
15307;SDS011;7755;52.208;6.964;2023-05-02T19:40:30;4.40;;;2.03;;
15307;SDS011;7755;52.208;6.964;2023-05-02T19:44:32;3.73;;;2.30;;
15307;SDS011;7755;52.208;6.964;2023-05-02T19:48:35;2.37;;;2.17;;
15307;SDS011;7755;52.208;6.964;2023-05-02T19:52:38;3.30;;;1.97;;
15307;SDS011;7755;52.208;6.964;2023-05-02T19:56:43;2.63;;;2.43;;
15307;SDS011;7755;52.208;6.964;2023-05-02T20:00:49;2.90;;;2.70;;
15307;SDS011;7755;52.208;6.964;2023-05-02T20:04:52;2.93;;;2.30;;
15307;SDS011;7755;52.208;6.964;2023-05-02T20:08:55;3.00;;;2.80;;
15307;SDS011;7755;52.208;6.964;2023-05-02T20:12:59;2.77;;;2.30;;
15307;SDS011;7755;52.208;6.964;2023-05-02T20:17:01;2.60;;;2.40;;
15307;SDS011;7755;52.208;6.964;2023-05-02T20:21:04;3.23;;;2.50;;
15307;SDS011;7755;52.208;6.964;2023-05-02T20:25:08;5.40;;;2.70;;
15307;SDS011;7755;52.208;6.964;2023-05-02T20:29:13;7.90;;;2.57;;
15307;SDS011;7755;52.208;6.964;2023-05-02T20:33:15;2.70;;;2.50;;
15307;SDS011;7755;52.208;6.964;2023-05-02T20:37:20;4.60;;;2.73;;
15307;SDS011;7755;52.208;6.964;2023-05-02T20:41:23;2.67;;;2.37;;
15307;SDS011;7755;52.208;6.964;2023-05-02T20:45:28;3.80;;;3.47;;
15307;SDS011;7755;52.208;6.964;2023-05-02T20:49:31;3.80;;;3.50;;
15307;SDS011;7755;52.208;6.964;2023-05-02T20:53:34;2.80;;;2.60;;
15307;SDS011;7755;52.208;6.964;2023-05-02T20:57:38;3.03;;;2.70;;
15307;SDS011;7755;52.208;6.964;2023-05-02T21:01:42;7.57;;;3.10;;
15307;SDS011;7755;52.208;6.964;2023-05-02T21:05:50;3.70;;;3.03;;
15307;SDS011;7755;52.208;6.964;2023-05-02T21:09:54;4.30;;;2.93;;
15307;SDS011;7755;52.208;6.964;2023-05-02T21:13:57;3.53;;;2.60;;
15307;SDS011;7755;52.208;6.964;2023-05-02T21:18:01;3.17;;;2.90;;
15307;SDS011;7755;52.208;6.964;2023-05-02T21:22:05;5.13;;;3.80;;
15307;SDS011;7755;52.208;6.964;2023-05-02T21:26:08;6.17;;;3.70;;
15307;SDS011;7755;52.208;6.964;2023-05-02T21:30:11;3.37;;;3.07;;
15307;SDS011;7755;52.208;6.964;2023-05-02T21:34:15;6.60;;;3.43;;
15307;SDS011;7755;52.208;6.964;2023-05-02T21:38:19;3.87;;;2.87;;
15307;SDS011;7755;52.208;6.964;2023-05-02T21:42:21;4.53;;;3.00;;
15307;SDS011;7755;52.208;6.964;2023-05-02T21:46:24;3.33;;;3.03;;
15307;SDS011;7755;52.208;6.964;2023-05-02T21:50:28;4.37;;;3.30;;
15307;SDS011;7755;52.208;6.964;2023-05-02T21:54:31;3.93;;;3.20;;
15307;SDS011;7755;52.208;6.964;2023-05-02T21:58:34;2.70;;;2.50;;
15307;SDS011;7755;52.208;6.964;2023-05-02T22:02:37;3.83;;;2.80;;
15307;SDS011;7755;52.208;6.964;2023-05-02T22:06:41;4.03;;;2.93;;
15307;SDS011;7755;52.208;6.964;2023-05-02T22:10:44;3.33;;;2.90;;
15307;SDS011;7755;52.208;6.964;2023-05-02T22:14:47;3.83;;;3.07;;
15307;SDS011;7755;52.208;6.964;2023-05-02T22:18:50;3.57;;;3.13;;
15307;SDS011;7755;52.208;6.964;2023-05-02T22:22:54;6.53;;;3.07;;
15307;SDS011;7755;52.208;6.964;2023-05-02T22:26:56;4.13;;;2.60;;
15307;SDS011;7755;52.208;6.964;2023-05-02T22:30:59;3.90;;;2.60;;
15307;SDS011;7755;52.208;6.964;2023-05-02T22:35:02;2.93;;;2.53;;
15307;SDS011;7755;52.208;6.964;2023-05-02T22:39:06;3.13;;;2.87;;
15307;SDS011;7755;52.208;6.964;2023-05-02T22:43:13;4.20;;;2.97;;
15307;SDS011;7755;52.208;6.964;2023-05-02T22:47:16;3.60;;;3.00;;
15307;SDS011;7755;52.208;6.964;2023-05-02T22:51:18;3.13;;;2.90;;
15307;SDS011;7755;52.208;6.964;2023-05-02T22:55:23;2.90;;;2.70;;
15307;SDS011;7755;52.208;6.964;2023-05-02T22:59:26;4.23;;;2.87;;
15307;SDS011;7755;52.208;6.964;2023-05-02T23:03:29;4.27;;;3.40;;
15307;SDS011;7755;52.208;6.964;2023-05-02T23:07:32;3.57;;;3.13;;
15307;SDS011;7755;52.208;6.964;2023-05-02T23:11:36;3.97;;;3.30;;
15307;SDS011;7755;52.208;6.964;2023-05-02T23:15:39;3.97;;;3.50;;
15307;SDS011;7755;52.208;6.964;2023-05-02T23:19:42;9.97;;;3.50;;
15307;SDS011;7755;52.208;6.964;2023-05-02T23:23:44;5.07;;;3.30;;
15307;SDS011;7755;52.208;6.964;2023-05-02T23:27:49;3.10;;;2.90;;
15307;SDS011;7755;52.208;6.964;2023-05-02T23:31:51;3.43;;;3.03;;
15307;SDS011;7755;52.208;6.964;2023-05-02T23:35:55;3.33;;;3.07;;
15307;SDS011;7755;52.208;6.964;2023-05-02T23:39:59;4.17;;;3.70;;
15307;SDS011;7755;52.208;6.964;2023-05-02T23:44:04;4.07;;;3.77;;
15307;SDS011;7755;52.208;6.964;2023-05-02T23:48:07;4.17;;;3.77;;
15307;SDS011;7755;52.208;6.964;2023-05-02T23:52:10;3.90;;;3.67;;
15307;SDS011;7755;52.208;6.964;2023-05-02T23:56:12;4.53;;;4.00;;
